Autumn — V7QA6 — position and weather

sailwx.info

Track history (hours):
 
Tides and Currents Weather Stations Pressure Air Temp Water Temp Dewpoint Dewpoint Depression Visibility Wind Speed Wind Dir Waves Ship Positions

Autumn

Last reported at 2014-Oct-31 17:33 UTC. Time now 2014-Oct-31 18:04 UTC.
Position N 52°28' E 003°16'.

Length 129 m; draft 8.1 m.

Type: Tanker. MMSI: 538003323.

Date/timePositionNaut miles runAvg speedWind from/ knotsBaromVisibWave heightAir tempDewpointWater temp
2014-Oct-31 17:33N 52°28' E 003°16'1313.4
2014-Oct-31 16:34N 52°15' E 003°16'1313.3
2014-Oct-31 15:33N 52°08' E 003°35'1313.2
2014-Oct-31 14:33N 52°02' E 003°54'1111.1
2014-Oct-31 13:33N 51°56' E 004°10'0 0.0
2014-Oct-31 12:33N 51°56' E 004°10'0 0.0
2014-Oct-31 11:27N 51°56' E 004°10'0 0.0
2014-Oct-31 10:33N 51°56' E 004°10'0 0.0
2014-Oct-31 09:33N 51°56' E 004°10'0 0.0
2014-Oct-31 08:33N 51°56' E 004°10'0 0.0
2014-Oct-31 07:33N 51°56' E 004°10'0 0.0
2014-Oct-31 06:27N 51°56' E 004°10'0 0.0
2014-Oct-31 05:33N 51°56' E 004°10'0 0.0
2014-Oct-31 04:33N 51°56' E 004°10'0 0.0
2014-Oct-31 03:33N 51°56' E 004°10'0 0.0
2014-Oct-31 02:33N 51°56' E 004°10'0 0.0
2014-Oct-31 01:33N 51°56' E 004°10'0 0.0
2014-Oct-31 00:33N 51°56' E 004°10'0 0.0
2014-Oct-30 23:33N 51°56' E 004°10'0 0.0
2014-Oct-30 22:33N 51°56' E 004°10'0 0.0
2014-Oct-30 21:33N 51°56' E 004°10'0 0.0
2014-Oct-30 20:33N 51°56' E 004°10'0 0.0
2014-Oct-30 19:33N 51°56' E 004°10'0 0.0
2014-Oct-30 18:33N 51°56' E 004°10'0 0.0
2014-Oct-30 17:33N 51°56' E 004°10'0 0.0
2014-Oct-30 16:33N 51°56' E 004°10'0 0.0
2014-Oct-30 15:30N 51°56' E 004°10'0 0.0
2014-Oct-30 14:33N 51°56' E 004°10'0 0.0
2014-Oct-30 13:33N 51°56' E 004°10'0 0.0
2014-Oct-30 12:33N 51°56' E 004°10'0 0.0
2014-Oct-30 11:33N 51°56' E 004°10'0 0.0
2014-Oct-30 10:33N 51°56' E 004°10'0 0.0
2014-Oct-30 09:30N 51°56' E 004°10'0 0.0
2014-Oct-30 08:30N 51°56' E 004°10'0 0.0
2014-Oct-30 07:33N 51°56' E 004°10'0 0.0
2014-Oct-30 06:33N 51°56' E 004°10'0 0.0
2014-Oct-30 05:33N 51°56' E 004°10'0 0.0
2014-Oct-30 04:30N 51°56' E 004°10'0 0.0
2014-Oct-30 03:33N 51°56' E 004°10'0 0.0
2014-Oct-30 02:33N 51°56' E 004°10'2 1.8
2014-Oct-30 01:33N 51°58' E 004°08'1111.1
2014-Oct-30 00:33N 51°60' E 003°50'1110.9
2014-Oct-29 23:33N 51°56' E 003°33'6 5.9
2014-Oct-29 22:31N 51°53' E 003°25'0 0.0
2014-Oct-29 21:31N 51°53' E 003°25'0 0.0
2014-Oct-29 19:25N 51°53' E 003°25'0 0.1
2014-Oct-29 18:25N 51°53' E 003°26'0 0.0
2014-Oct-29 15:04N 51°53' E 003°25'0 0.0
2014-Oct-29 14:31N 51°53' E 003°25'0 0.0
2014-Oct-29 12:31N 51°53' E 003°25'0 0.0
2014-Oct-29 10:28N 51°53' E 003°25'0 0.0
2014-Oct-29 06:31N 51°53' E 003°26'0 0.0
2014-Oct-29 04:22N 51°53' E 003°26'0 0.0
2014-Oct-29 03:31N 51°53' E 003°26'0 0.0
2014-Oct-29 02:28N 51°53' E 003°26'0 0.1
2014-Oct-29 01:06N 51°53' E 003°26'5 8.6
2014-Oct-29 00:28N 51°49' E 003°19'1010.5
2014-Oct-28 23:33N 51°40' E 003°19'1211.6
2014-Oct-28 22:33N 51°30' E 003°28'1010.0
2014-Oct-28 21:34N 51°25' E 003°42'1010.3
2014-Oct-28 20:34N 51°26' E 003°59'1111.3
2014-Oct-28 19:34N 51°21' E 004°15'1 1.4
2014-Oct-28 18:33N 51°21' E 004°17'1 0.5
2014-Oct-28 17:32N 51°21' E 004°18'2 1.7
2014-Oct-28 16:34N 51°19' E 004°19'3 3.1
2014-Oct-28 15:31N 51°16' E 004°21'0 0.0
2014-Oct-28 14:31N 51°16' E 004°21'0 0.0
2014-Oct-28 13:34N 51°16' E 004°21'0 0.0
2014-Oct-28 12:34N 51°16' E 004°21'0 0.0
2014-Oct-28 11:34N 51°16' E 004°21'0 0.0
2014-Oct-28 10:34N 51°16' E 004°21'0 0.0
2014-Oct-28 09:30N 51°16' E 004°21'0 0.0
2014-Oct-28 08:33N 51°16' E 004°21'0 0.0
2014-Oct-28 07:34N 51°16' E 004°21'0 0.0
2014-Oct-28 06:31N 51°16' E 004°21'0 0.0
2014-Oct-28 05:34N 51°16' E 004°21'0 0.0
2014-Oct-28 04:34N 51°16' E 004°21'0 0.0
2014-Oct-28 03:34N 51°16' E 004°21'0 0.0
2014-Oct-28 02:30N 51°16' E 004°21'0 0.0
2014-Oct-28 01:31N 51°16' E 004°21'0 0.0
2014-Oct-28 00:33N 51°16' E 004°21'0 0.0
2014-Oct-27 23:27N 51°16' E 004°21'533566.4
2014-Oct-27 22:31N 54°39' E 017°60'533556.0
2014-Oct-27 21:33N 51°16' E 004°21'0 0.0
2014-Oct-27 20:33N 51°16' E 004°21'0 0.0
2014-Oct-27 19:27N 51°16' E 004°21'0 0.0
2014-Oct-27 18:34N 51°16' E 004°21'0 0.0
2014-Oct-27 17:34N 51°16' E 004°21'0 0.0
2014-Oct-27 16:31N 51°16' E 004°21'0 0.0
2014-Oct-27 15:33N 51°16' E 004°21'5 5.0
2014-Oct-27 14:34N 51°21' E 004°17'0 0.0
2014-Oct-27 13:33N 51°21' E 004°17'5 4.6
2014-Oct-27 12:33N 51°24' E 004°12'9 8.7
2014-Oct-27 11:34N 51°25' E 003°58'10 9.7
2014-Oct-27 10:33N 51°24' E 003°43'1010.1
2014-Oct-27 09:34N 51°25' E 003°27'1111.2
2014-Oct-27 08:33N 51°24' E 003°09'8 7.5
2014-Oct-27 07:32N 51°31' E 003°05'1212.1
2014-Oct-27 06:30N 51°42' E 003°14'8 7.8
2014-Oct-27 05:27N 51°46' E 003°03'1212.8
2014-Oct-27 04:32N 51°52' E 002°46'1611.6
2014-Oct-27 03:09N 52°05' E 002°31'811.6
2014-Oct-27 02:29N 52°12' E 002°27'1312.2
2014-Oct-27 01:24N 52°25' E 002°22'1113.1
2014-Oct-27 00:34N 52°35' E 002°17'1613.8
2014-Oct-26 23:26N 52°50' E 002°09'1213.5
2014-Oct-26 22:33N 52°57' E 001°53'1514.5
2014-Oct-26 21:33N 53°05' E 001°33'1514.7
2014-Oct-26 20:33N 53°16' E 001°16'3014.2
2014-Oct-26 18:27N 53°41' E 000°48'1314.8
2014-Oct-26 17:33N 53°51' E 000°34'1514.6
2014-Oct-26 16:33N 54°02' E 000°18'1414.5
2014-Oct-26 15:33N 54°14' E 000°03'1413.9
2014-Oct-26 14:33N 54°25' W 000°12'1313.2
2014-Oct-26 13:33N 54°36' W 000°23'1312.7
2014-Oct-26 12:33N 54°48' W 000°33'1212.1
2014-Oct-26 11:33N 54°58' W 000°43'1211.7
2014-Oct-26 10:33N 55°09' W 000°53'5512.4
2014-Oct-26 06:07N 55°54' W 001°49'813.5
2014-Oct-26 05:33N 55°59' W 001°59'1413.7
2014-Oct-26 04:33N 56°03' W 002°22'1413.9
2014-Oct-26 03:33N 56°06' W 002°47'1313.3
2014-Oct-26 02:33N 56°02' W 003°10'1211.7
2014-Oct-26 01:34N 56°01' W 003°30'6 6.1
2014-Oct-26 00:34N 56°02' W 003°41'0 0.1
2014-Oct-25 23:33N 56°02' W 003°42'0 0.0
2014-Oct-25 22:33N 56°02' W 003°42'0 0.0
2014-Oct-25 21:33N 56°02' W 003°42'0 0.0
2014-Oct-25 20:33N 56°02' W 003°42'0 0.0
2014-Oct-25 19:33N 56°02' W 003°42'0 0.0
2014-Oct-25 18:33N 56°02' W 003°42'0 0.0
2014-Oct-25 17:33N 56°02' W 003°42'0 0.0
2014-Oct-25 16:33N 56°02' W 003°42'0 0.0
2014-Oct-25 15:33N 56°02' W 003°42'0 0.0
2014-Oct-25 14:33N 56°02' W 003°42'0 0.0
2014-Oct-25 13:33N 56°02' W 003°42'0 0.0
2014-Oct-25 12:33N 56°02' W 003°42'0 0.0
2014-Oct-25 11:33N 56°02' W 003°42'0 0.0
2014-Oct-25 10:33N 56°02' W 003°42'0 0.0
2014-Oct-25 09:33N 56°02' W 003°42'0 0.0
2014-Oct-25 08:33N 56°02' W 003°42'0 0.0
2014-Oct-25 07:33N 56°02' W 003°42'0 0.0
2014-Oct-25 06:33N 56°02' W 003°42'0 0.0
2014-Oct-25 05:33N 56°02' W 003°42'0 0.0
2014-Oct-25 04:33N 56°02' W 003°42'0 0.0
2014-Oct-25 03:33N 56°02' W 003°42'0 0.0
2014-Oct-25 02:33N 56°02' W 003°42'0 0.0
2014-Oct-25 01:33N 56°02' W 003°42'0 0.0
2014-Oct-25 00:33N 56°02' W 003°42'0 0.0
2014-Oct-24 23:33N 56°02' W 003°42'0 0.0
2014-Oct-24 22:33N 56°02' W 003°42'0 0.0
2014-Oct-24 21:33N 56°02' W 003°42'0 0.0
2014-Oct-24 20:33N 56°02' W 003°42'0 0.0
2014-Oct-24 19:33N 56°02' W 003°42'0 0.0
2014-Oct-24 18:33N 56°02' W 003°42'0 0.0
2014-Oct-24 17:33N 56°02' W 003°42'0 0.0
2014-Oct-24 16:33N 56°02' W 003°42'0 0.0
2014-Oct-24 15:33N 56°02' W 003°42'0 0.0
2014-Oct-24 14:33N 56°02' W 003°42'0 0.0
2014-Oct-24 13:33N 56°02' W 003°42'0 0.0
2014-Oct-24 12:33N 56°02' W 003°42'0 0.0
2014-Oct-24 11:33N 56°02' W 003°42'0 0.0
2014-Oct-24 10:33N 56°02' W 003°42'0 0.0
2014-Oct-24 09:33N 56°02' W 003°42'0 0.0
2014-Oct-24 08:33N 56°02' W 003°42'0 0.0
2014-Oct-24 07:33N 56°02' W 003°42'0 0.0
2014-Oct-24 06:33N 56°02' W 003°42'0 0.0
2014-Oct-24 05:33N 56°02' W 003°42'0 0.0
2014-Oct-24 04:33N 56°02' W 003°42'0 0.0
2014-Oct-24 03:33N 56°02' W 003°42'0 0.0
2014-Oct-24 02:33N 56°02' W 003°42'0 0.0
2014-Oct-24 01:33N 56°02' W 003°42'1 0.9
2014-Oct-24 00:33N 56°02' W 003°40'7 7.5
2014-Oct-23 23:33N 56°01' W 003°27'1211.7
2014-Oct-23 22:33N 56°04' W 003°07'3 2.8
2014-Oct-23 21:31N 56°06' W 003°06'0 0.0
2014-Oct-23 20:31N 56°06' W 003°06'0 0.1
2014-Oct-23 19:31N 56°06' W 003°06'0 0.0
2014-Oct-23 18:31N 56°06' W 003°06'0 0.0
2014-Oct-23 17:31N 56°06' W 003°06'3 3.5
2014-Oct-23 16:33N 56°06' W 002°60'1312.6
2014-Oct-23 15:33N 56°06' W 002°37'1313.4
2014-Oct-23 14:33N 56°03' W 002°14'1313.4
2014-Oct-23 13:33N 55°56' W 001°53'7214.4
2014-Oct-23 08:33N 55°06' W 000°21'1515.0
2014-Oct-23 07:33N 54°56' W 000°02'1514.5
2014-Oct-23 06:32N 54°45' E 000°16'1313.8
2014-Oct-23 05:33N 54°36' E 000°33'1713.0
2014-Oct-23 04:17N 54°25' E 000°54'15112.5
2014-Oct-22 16:12N 52°41' E 003°60'812.0
2014-Oct-22 15:33N 52°34' E 004°07'1111.5
2014-Oct-22 14:33N 52°30' E 004°24'8 7.9
2014-Oct-22 13:33N 52°28' E 004°36'2 1.8
2014-Oct-22 12:33N 52°28' E 004°39'1 1.3
2014-Oct-22 11:33N 52°27' E 004°41'3 3.2
2014-Oct-22 10:34N 52°25' E 004°45'0 0.0
2014-Oct-22 09:34N 52°25' E 004°45'0 0.0
2014-Oct-22 08:31N 52°25' E 004°45'0 0.0
2014-Oct-22 07:34N 52°25' E 004°45'0 0.0
2014-Oct-22 06:34N 52°25' E 004°45'0 0.0
2014-Oct-22 05:34N 52°25' E 004°45'0 0.0
2014-Oct-22 04:34N 52°25' E 004°45'0 0.0
2014-Oct-22 03:34N 52°25' E 004°45'0 0.0
2014-Oct-22 02:33N 52°25' E 004°45'0 0.0
2014-Oct-22 01:34N 52°25' E 004°45'0 0.0
2014-Oct-22 00:34N 52°25' E 004°45'0 0.0
2014-Oct-21 23:34N 52°25' E 004°45'0 0.0
2014-Oct-21 22:34N 52°25' E 004°45'0 0.0
2014-Oct-21 21:33N 52°25' E 004°45'0 0.0
2014-Oct-21 20:33N 52°25' E 004°45'0 0.0
2014-Oct-21 19:34N 52°25' E 004°45'0 0.0
2014-Oct-21 18:31N 52°25' E 004°45'0 0.0
2014-Oct-21 17:34N 52°25' E 004°45'  
Track history (hours):
 
Tides and Currents Weather Stations Pressure Air Temp Water Temp Dewpoint Dewpoint Depression Visibility Wind Speed Wind Dir Waves Ship Positions

Autumn

Last reported at 2014-Oct-31 17:33 UTC. Time now 2014-Oct-31 18:04 UTC.
Position N 52°28' E 003°16'.

Length 129 m; draft 8.1 m.

Type: Tanker. MMSI: 538003323.

Date/timePositionNaut miles runAvg speedWind from/ knotsBaromVisibWave heightAir tempDewpointWater temp
2014-Oct-31 17:33N 52°28' E 003°16'1313.4
2014-Oct-31 16:34N 52°15' E 003°16'1313.3
2014-Oct-31 15:33N 52°08' E 003°35'1313.2
2014-Oct-31 14:33N 52°02' E 003°54'1111.1
2014-Oct-31 13:33N 51°56' E 004°10'0 0.0
2014-Oct-31 12:33N 51°56' E 004°10'0 0.0
2014-Oct-31 11:27N 51°56' E 004°10'0 0.0
2014-Oct-31 10:33N 51°56' E 004°10'0 0.0
2014-Oct-31 09:33N 51°56' E 004°10'0 0.0
2014-Oct-31 08:33N 51°56' E 004°10'0 0.0
2014-Oct-31 07:33N 51°56' E 004°10'0 0.0
2014-Oct-31 06:27N 51°56' E 004°10'0 0.0
2014-Oct-31 05:33N 51°56' E 004°10'0 0.0
2014-Oct-31 04:33N 51°56' E 004°10'0 0.0
2014-Oct-31 03:33N 51°56' E 004°10'0 0.0
2014-Oct-31 02:33N 51°56' E 004°10'0 0.0
2014-Oct-31 01:33N 51°56' E 004°10'0 0.0
2014-Oct-31 00:33N 51°56' E 004°10'0 0.0
2014-Oct-30 23:33N 51°56' E 004°10'0 0.0
2014-Oct-30 22:33N 51°56' E 004°10'0 0.0
2014-Oct-30 21:33N 51°56' E 004°10'0 0.0
2014-Oct-30 20:33N 51°56' E 004°10'0 0.0
2014-Oct-30 19:33N 51°56' E 004°10'0 0.0
2014-Oct-30 18:33N 51°56' E 004°10'0 0.0
2014-Oct-30 17:33N 51°56' E 004°10'0 0.0
2014-Oct-30 16:33N 51°56' E 004°10'0 0.0
2014-Oct-30 15:30N 51°56' E 004°10'0 0.0
2014-Oct-30 14:33N 51°56' E 004°10'0 0.0
2014-Oct-30 13:33N 51°56' E 004°10'0 0.0
2014-Oct-30 12:33N 51°56' E 004°10'0 0.0
2014-Oct-30 11:33N 51°56' E 004°10'0 0.0
2014-Oct-30 10:33N 51°56' E 004°10'0 0.0
2014-Oct-30 09:30N 51°56' E 004°10'0 0.0
2014-Oct-30 08:30N 51°56' E 004°10'0 0.0
2014-Oct-30 07:33N 51°56' E 004°10'0 0.0
2014-Oct-30 06:33N 51°56' E 004°10'0 0.0
2014-Oct-30 05:33N 51°56' E 004°10'0 0.0
2014-Oct-30 04:30N 51°56' E 004°10'0 0.0
2014-Oct-30 03:33N 51°56' E 004°10'0 0.0
2014-Oct-30 02:33N 51°56' E 004°10'2 1.8
2014-Oct-30 01:33N 51°58' E 004°08'1111.1
2014-Oct-30 00:33N 51°60' E 003°50'1110.9
2014-Oct-29 23:33N 51°56' E 003°33'6 5.9
2014-Oct-29 22:31N 51°53' E 003°25'0 0.0
2014-Oct-29 21:31N 51°53' E 003°25'0 0.0
2014-Oct-29 19:25N 51°53' E 003°25'0 0.1
2014-Oct-29 18:25N 51°53' E 003°26'0 0.0
2014-Oct-29 15:04N 51°53' E 003°25'0 0.0
2014-Oct-29 14:31N 51°53' E 003°25'0 0.0
2014-Oct-29 12:31N 51°53' E 003°25'0 0.0
2014-Oct-29 10:28N 51°53' E 003°25'0 0.0
2014-Oct-29 06:31N 51°53' E 003°26'0 0.0
2014-Oct-29 04:22N 51°53' E 003°26'0 0.0
2014-Oct-29 03:31N 51°53' E 003°26'0 0.0
2014-Oct-29 02:28N 51°53' E 003°26'0 0.1
2014-Oct-29 01:06N 51°53' E 003°26'5 8.6
2014-Oct-29 00:28N 51°49' E 003°19'1010.5
2014-Oct-28 23:33N 51°40' E 003°19'1211.6
2014-Oct-28 22:33N 51°30' E 003°28'1010.0
2014-Oct-28 21:34N 51°25' E 003°42'1010.3
2014-Oct-28 20:34N 51°26' E 003°59'1111.3
2014-Oct-28 19:34N 51°21' E 004°15'1 1.4
2014-Oct-28 18:33N 51°21' E 004°17'1 0.5
2014-Oct-28 17:32N 51°21' E 004°18'2 1.7
2014-Oct-28 16:34N 51°19' E 004°19'3 3.1
2014-Oct-28 15:31N 51°16' E 004°21'0 0.0
2014-Oct-28 14:31N 51°16' E 004°21'0 0.0
2014-Oct-28 13:34N 51°16' E 004°21'0 0.0
2014-Oct-28 12:34N 51°16' E 004°21'0 0.0
2014-Oct-28 11:34N 51°16' E 004°21'0 0.0
2014-Oct-28 10:34N 51°16' E 004°21'0 0.0
2014-Oct-28 09:30N 51°16' E 004°21'0 0.0
2014-Oct-28 08:33N 51°16' E 004°21'0 0.0
2014-Oct-28 07:34N 51°16' E 004°21'0 0.0
2014-Oct-28 06:31N 51°16' E 004°21'0 0.0
2014-Oct-28 05:34N 51°16' E 004°21'0 0.0
2014-Oct-28 04:34N 51°16' E 004°21'0 0.0
2014-Oct-28 03:34N 51°16' E 004°21'0 0.0
2014-Oct-28 02:30N 51°16' E 004°21'0 0.0
2014-Oct-28 01:31N 51°16' E 004°21'0 0.0
2014-Oct-28 00:33N 51°16' E 004°21'0 0.0
2014-Oct-27 23:27N 51°16' E 004°21'533566.4
2014-Oct-27 22:31N 54°39' E 017°60'533556.0
2014-Oct-27 21:33N 51°16' E 004°21'0 0.0
2014-Oct-27 20:33N 51°16' E 004°21'0 0.0
2014-Oct-27 19:27N 51°16' E 004°21'0 0.0
2014-Oct-27 18:34N 51°16' E 004°21'0 0.0
2014-Oct-27 17:34N 51°16' E 004°21'0 0.0
2014-Oct-27 16:31N 51°16' E 004°21'0 0.0
2014-Oct-27 15:33N 51°16' E 004°21'5 5.0
2014-Oct-27 14:34N 51°21' E 004°17'0 0.0
2014-Oct-27 13:33N 51°21' E 004°17'5 4.6
2014-Oct-27 12:33N 51°24' E 004°12'9 8.7
2014-Oct-27 11:34N 51°25' E 003°58'10 9.7
2014-Oct-27 10:33N 51°24' E 003°43'1010.1
2014-Oct-27 09:34N 51°25' E 003°27'1111.2
2014-Oct-27 08:33N 51°24' E 003°09'8 7.5
2014-Oct-27 07:32N 51°31' E 003°05'1212.1
2014-Oct-27 06:30N 51°42' E 003°14'8 7.8
2014-Oct-27 05:27N 51°46' E 003°03'1212.8
2014-Oct-27 04:32N 51°52' E 002°46'1611.6
2014-Oct-27 03:09N 52°05' E 002°31'811.6
2014-Oct-27 02:29N 52°12' E 002°27'1312.2
2014-Oct-27 01:24N 52°25' E 002°22'1113.1
2014-Oct-27 00:34N 52°35' E 002°17'1613.8
2014-Oct-26 23:26N 52°50' E 002°09'1213.5
2014-Oct-26 22:33N 52°57' E 001°53'1514.5
2014-Oct-26 21:33N 53°05' E 001°33'1514.7
2014-Oct-26 20:33N 53°16' E 001°16'3014.2
2014-Oct-26 18:27N 53°41' E 000°48'1314.8
2014-Oct-26 17:33N 53°51' E 000°34'1514.6
2014-Oct-26 16:33N 54°02' E 000°18'1414.5
2014-Oct-26 15:33N 54°14' E 000°03'1413.9
2014-Oct-26 14:33N 54°25' W 000°12'1313.2
2014-Oct-26 13:33N 54°36' W 000°23'1312.7
2014-Oct-26 12:33N 54°48' W 000°33'1212.1
2014-Oct-26 11:33N 54°58' W 000°43'1211.7
2014-Oct-26 10:33N 55°09' W 000°53'5512.4
2014-Oct-26 06:07N 55°54' W 001°49'813.5
2014-Oct-26 05:33N 55°59' W 001°59'1413.7
2014-Oct-26 04:33N 56°03' W 002°22'1413.9
2014-Oct-26 03:33N 56°06' W 002°47'1313.3
2014-Oct-26 02:33N 56°02' W 003°10'1211.7
2014-Oct-26 01:34N 56°01' W 003°30'6 6.1
2014-Oct-26 00:34N 56°02' W 003°41'0 0.1
2014-Oct-25 23:33N 56°02' W 003°42'0 0.0
2014-Oct-25 22:33N 56°02' W 003°42'0 0.0
2014-Oct-25 21:33N 56°02' W 003°42'0 0.0
2014-Oct-25 20:33N 56°02' W 003°42'0 0.0
2014-Oct-25 19:33N 56°02' W 003°42'0 0.0
2014-Oct-25 18:33N 56°02' W 003°42'0 0.0
2014-Oct-25 17:33N 56°02' W 003°42'0 0.0
2014-Oct-25 16:33N 56°02' W 003°42'0 0.0
2014-Oct-25 15:33N 56°02' W 003°42'0 0.0
2014-Oct-25 14:33N 56°02' W 003°42'0 0.0
2014-Oct-25 13:33N 56°02' W 003°42'0 0.0
2014-Oct-25 12:33N 56°02' W 003°42'0 0.0
2014-Oct-25 11:33N 56°02' W 003°42'0 0.0
2014-Oct-25 10:33N 56°02' W 003°42'0 0.0
2014-Oct-25 09:33N 56°02' W 003°42'0 0.0
2014-Oct-25 08:33N 56°02' W 003°42'0 0.0
2014-Oct-25 07:33N 56°02' W 003°42'0 0.0
2014-Oct-25 06:33N 56°02' W 003°42'0 0.0
2014-Oct-25 05:33N 56°02' W 003°42'0 0.0
2014-Oct-25 04:33N 56°02' W 003°42'0 0.0
2014-Oct-25 03:33N 56°02' W 003°42'0 0.0
2014-Oct-25 02:33N 56°02' W 003°42'0 0.0
2014-Oct-25 01:33N 56°02' W 003°42'0 0.0
2014-Oct-25 00:33N 56°02' W 003°42'0 0.0
2014-Oct-24 23:33N 56°02' W 003°42'0 0.0
2014-Oct-24 22:33N 56°02' W 003°42'0 0.0
2014-Oct-24 21:33N 56°02' W 003°42'0 0.0
2014-Oct-24 20:33N 56°02' W 003°42'0 0.0
2014-Oct-24 19:33N 56°02' W 003°42'0 0.0
2014-Oct-24 18:33N 56°02' W 003°42'0 0.0
2014-Oct-24 17:33N 56°02' W 003°42'0 0.0
2014-Oct-24 16:33N 56°02' W 003°42'0 0.0
2014-Oct-24 15:33N 56°02' W 003°42'0 0.0
2014-Oct-24 14:33N 56°02' W 003°42'0 0.0
2014-Oct-24 13:33N 56°02' W 003°42'0 0.0
2014-Oct-24 12:33N 56°02' W 003°42'0 0.0
2014-Oct-24 11:33N 56°02' W 003°42'0 0.0
2014-Oct-24 10:33N 56°02' W 003°42'0 0.0
2014-Oct-24 09:33N 56°02' W 003°42'0 0.0
2014-Oct-24 08:33N 56°02' W 003°42'0 0.0
2014-Oct-24 07:33N 56°02' W 003°42'0 0.0
2014-Oct-24 06:33N 56°02' W 003°42'0 0.0
2014-Oct-24 05:33N 56°02' W 003°42'0 0.0
2014-Oct-24 04:33N 56°02' W 003°42'0 0.0
2014-Oct-24 03:33N 56°02' W 003°42'0 0.0
2014-Oct-24 02:33N 56°02' W 003°42'0 0.0
2014-Oct-24 01:33N 56°02' W 003°42'1 0.9
2014-Oct-24 00:33N 56°02' W 003°40'7 7.5
2014-Oct-23 23:33N 56°01' W 003°27'1211.7
2014-Oct-23 22:33N 56°04' W 003°07'3 2.8
2014-Oct-23 21:31N 56°06' W 003°06'0 0.0
2014-Oct-23 20:31N 56°06' W 003°06'0 0.1
2014-Oct-23 19:31N 56°06' W 003°06'0 0.0
2014-Oct-23 18:31N 56°06' W 003°06'0 0.0
2014-Oct-23 17:31N 56°06' W 003°06'3 3.5
2014-Oct-23 16:33N 56°06' W 002°60'1312.6
2014-Oct-23 15:33N 56°06' W 002°37'1313.4
2014-Oct-23 14:33N 56°03' W 002°14'1313.4
2014-Oct-23 13:33N 55°56' W 001°53'7214.4
2014-Oct-23 08:33N 55°06' W 000°21'1515.0
2014-Oct-23 07:33N 54°56' W 000°02'1514.5
2014-Oct-23 06:32N 54°45' E 000°16'1313.8
2014-Oct-23 05:33N 54°36' E 000°33'1713.0
2014-Oct-23 04:17N 54°25' E 000°54'15112.5
2014-Oct-22 16:12N 52°41' E 003°60'812.0
2014-Oct-22 15:33N 52°34' E 004°07'1111.5
2014-Oct-22 14:33N 52°30' E 004°24'8 7.9
2014-Oct-22 13:33N 52°28' E 004°36'2 1.8
2014-Oct-22 12:33N 52°28' E 004°39'1 1.3
2014-Oct-22 11:33N 52°27' E 004°41'3 3.2
2014-Oct-22 10:34N 52°25' E 004°45'0 0.0
2014-Oct-22 09:34N 52°25' E 004°45'0 0.0
2014-Oct-22 08:31N 52°25' E 004°45'0 0.0
2014-Oct-22 07:34N 52°25' E 004°45'0 0.0
2014-Oct-22 06:34N 52°25' E 004°45'0 0.0
2014-Oct-22 05:34N 52°25' E 004°45'0 0.0
2014-Oct-22 04:34N 52°25' E 004°45'0 0.0
2014-Oct-22 03:34N 52°25' E 004°45'0 0.0
2014-Oct-22 02:33N 52°25' E 004°45'0 0.0
2014-Oct-22 01:34N 52°25' E 004°45'0 0.0
2014-Oct-22 00:34N 52°25' E 004°45'0 0.0
2014-Oct-21 23:34N 52°25' E 004°45'0 0.0
2014-Oct-21 22:34N 52°25' E 004°45'0 0.0
2014-Oct-21 21:33N 52°25' E 004°45'0 0.0
2014-Oct-21 20:33N 52°25' E 004°45'0 0.0
2014-Oct-21 19:34N 52°25' E 004°45'0 0.0
2014-Oct-21 18:31N 52°25' E 004°45'0 0.0
2014-Oct-21 17:34N 52°25' E 004°45'  

Dump ship's entire track history